< < Back
Terminal Aerodrome Forecast


Current Version              Previous Versions:   1  2  3  4  5  6  7  8  9  

Terminal Aerodrome Forecast

068
FTUS44 KBMX 270500
TAFMGM
TAF
KMGM 270536Z 2706/2806 34003KT P6SM SCT250
     FM271500 35009KT P6SM SCT035=

Latest METAR

247
SAUS80 KWBC 270700
MTRMGM
METAR KMGM 270653Z AUTO 27004KT 9SM CLR M01/M03 A3025 RMK AO2 SLP244
T10061028 FZRANO


USA.gov is the U.S. government's official web portal to all federal, state and local government web resources and services.